sensor_id;sensor_type;location;lat;lon;timestamp;pressure;altitude;pressure_sealevel;temperature;humidity
74065;BME280;62421;51.412;5.432;2022-11-27T00:01:29;102426.63;;;4.24;100.00
74065;BME280;62421;51.412;5.432;2022-11-27T00:03:55;102409.84;;;4.19;100.00
74065;BME280;62421;51.412;5.432;2022-11-27T00:06:23;102409.94;;;4.15;100.00
74065;BME280;62421;51.412;5.432;2022-11-27T00:08:48;102421.53;;;4.10;100.00
74065;BME280;62421;51.412;5.432;2022-11-27T00:11:18;102418.00;;;4.08;100.00
74065;BME280;62421;51.412;5.432;2022-11-27T00:13:45;102420.75;;;4.05;100.00
74065;BME280;62421;51.412;5.432;2022-11-27T00:16:12;102411.97;;;4.00;100.00
74065;BME280;62421;51.412;5.432;2022-11-27T00:18:37;102420.88;;;3.98;100.00
74065;BME280;62421;51.412;5.432;2022-11-27T00:21:09;102420.09;;;3.93;100.00
74065;BME280;62421;51.412;5.432;2022-11-27T00:23:36;102418.38;;;3.88;100.00
74065;BME280;62421;51.412;5.432;2022-11-27T00:26:02;102415.78;;;3.85;100.00
74065;BME280;62421;51.412;5.432;2022-11-27T00:28:28;102401.66;;;3.82;100.00
74065;BME280;62421;51.412;5.432;2022-11-27T00:30:59;102403.47;;;3.80;100.00
74065;BME280;62421;51.412;5.432;2022-11-27T00:33:25;102398.22;;;3.75;100.00
74065;BME280;62421;51.412;5.432;2022-11-27T00:35:50;102400.06;;;3.72;100.00
74065;BME280;62421;51.412;5.432;2022-11-27T00:38:15;102393.03;;;3.69;100.00
74065;BME280;62421;51.412;5.432;2022-11-27T00:40:41;102382.47;;;3.66;100.00
74065;BME280;62421;51.412;5.432;2022-11-27T00:43:06;102385.16;;;3.63;100.00
74065;BME280;62421;51.412;5.432;2022-11-27T00:45:31;102394.03;;;3.62;100.00
74065;BME280;62421;51.412;5.432;2022-11-27T00:47:56;102387.00;;;3.58;100.00
74065;BME280;62421;51.412;5.432;2022-11-27T00:50:22;102379.06;;;3.55;100.00
74065;BME280;62421;51.412;5.432;2022-11-27T00:52:47;102380.88;;;3.54;100.00
74065;BME280;62421;51.412;5.432;2022-11-27T00:55:12;102377.34;;;3.52;100.00
74065;BME280;62421;51.412;5.432;2022-11-27T00:57:38;102369.38;;;3.52;100.00
74065;BME280;62421;51.412;5.432;2022-11-27T01:00:05;102366.72;;;3.52;100.00
74065;BME280;62421;51.412;5.432;2022-11-27T01:02:30;102367.66;;;3.49;100.00
74065;BME280;62421;51.412;5.432;2022-11-27T01:04:55;102357.97;;;3.47;100.00
74065;BME280;62421;51.412;5.432;2022-11-27T01:07:21;102357.13;;;3.45;100.00
74065;BME280;62421;51.412;5.432;2022-11-27T01:09:46;102360.66;;;3.44;100.00
74065;BME280;62421;51.412;5.432;2022-11-27T01:12:11;102349.19;;;3.42;100.00
74065;BME280;62421;51.412;5.432;2022-11-27T01:14:37;102351.88;;;3.40;100.00
74065;BME280;62421;51.412;5.432;2022-11-27T01:17:02;102346.59;;;3.39;100.00
74065;BME280;62421;51.412;5.432;2022-11-27T01:19:27;102354.56;;;3.37;100.00
74065;BME280;62421;51.412;5.432;2022-11-27T01:21:53;102347.53;;;3.35;100.00
74065;BME280;62421;51.412;5.432;2022-11-27T01:24:18;102348.47;;;3.32;100.00
74065;BME280;62421;51.412;5.432;2022-11-27T01:26:44;102360.03;;;3.30;100.00
74065;BME280;62421;51.412;5.432;2022-11-27T01:29:10;102368.00;;;3.28;100.00
74065;BME280;62421;51.412;5.432;2022-11-27T01:31:36;102365.34;;;3.30;100.00
74065;BME280;62421;51.412;5.432;2022-11-27T01:34:04;102361.75;;;3.32;100.00
74065;BME280;62421;51.412;5.432;2022-11-27T01:36:31;102367.03;;;3.34;100.00
74065;BME280;62421;51.412;5.432;2022-11-27T01:38:57;102341.34;;;3.34;100.00
74065;BME280;62421;51.412;5.432;2022-11-27T01:41:25;102326.28;;;3.36;100.00
74065;BME280;62421;51.412;5.432;2022-11-27T01:43:55;102321.81;;;3.38;100.00
74065;BME280;62421;51.412;5.432;2022-11-27T01:46:34;102324.44;;;3.40;100.00
74065;BME280;62421;51.412;5.432;2022-11-27T01:49:29;102312.00;;;3.43;100.00
74065;BME280;62421;51.412;5.432;2022-11-27T01:52:00;102317.25;;;3.46;100.00
74065;BME280;62421;51.412;5.432;2022-11-27T01:54:38;102325.16;;;3.49;100.00
74065;BME280;62421;51.412;5.432;2022-11-27T01:57:13;102304.78;;;3.52;100.00
74065;BME280;62421;51.412;5.432;2022-11-27T01:59:39;102288.84;;;3.52;100.00
74065;BME280;62421;51.412;5.432;2022-11-27T02:02:05;102285.25;;;3.53;100.00
74065;BME280;62421;51.412;5.432;2022-11-27T02:04:30;102267.66;;;3.48;100.00
74065;BME280;62421;51.412;5.432;2022-11-27T02:06:57;102267.72;;;3.44;100.00
74065;BME280;62421;51.412;5.432;2022-11-27T02:09:24;102269.56;;;3.40;100.00
74065;BME280;62421;51.412;5.432;2022-11-27T02:11:57;102261.72;;;3.33;100.00
74065;BME280;62421;51.412;5.432;2022-11-27T02:17:25;102256.59;;;3.20;100.00
74065;BME280;62421;51.412;5.432;2022-11-27T02:29:01;102237.34;;;3.09;100.00
74065;BME280;62421;51.412;5.432;2022-11-27T02:31:33;102233.81;;;3.10;100.00
74065;BME280;62421;51.412;5.432;2022-11-27T02:36:49;102234.66;;;3.11;100.00
74065;BME280;62421;51.412;5.432;2022-11-27T02:39:21;102239.03;;;3.13;100.00
74065;BME280;62421;51.412;5.432;2022-11-27T02:41:56;102229.28;;;3.15;100.00
74065;BME280;62421;51.412;5.432;2022-11-27T02:44:27;102222.16;;;3.19;100.00
74065;BME280;62421;51.412;5.432;2022-11-27T02:46:55;102227.38;;;3.23;100.00
74065;BME280;62421;51.412;5.432;2022-11-27T02:49:21;102213.16;;;3.27;100.00
74065;BME280;62421;51.412;5.432;2022-11-27T02:51:52;102220.19;;;3.30;100.00
74065;BME280;62421;51.412;5.432;2022-11-27T02:54:23;102215.72;;;3.32;100.00
74065;BME280;62421;51.412;5.432;2022-11-27T02:56:51;102223.59;;;3.35;100.00
74065;BME280;62421;51.412;5.432;2022-11-27T02:59:19;102228.03;;;3.36;100.00
74065;BME280;62421;51.412;5.432;2022-11-27T03:01:50;102241.25;;;3.39;100.00
74065;BME280;62421;51.412;5.432;2022-11-27T03:04:22;102236.78;;;3.40;100.00
74065;BME280;62421;51.412;5.432;2022-11-27T03:06:54;102240.28;;;3.43;100.00
74065;BME280;62421;51.412;5.432;2022-11-27T03:09:28;102238.47;;;3.47;100.00
74065;BME280;62421;51.412;5.432;2022-11-27T03:11:57;102251.63;;;3.53;100.00
74065;BME280;62421;51.412;5.432;2022-11-27T03:14:23;102234.75;;;3.57;100.00
74065;BME280;62421;51.412;5.432;2022-11-27T03:16:59;102238.19;;;3.61;100.00
74065;BME280;62421;51.412;5.432;2022-11-27T03:22:18;102229.22;;;3.68;100.00
74065;BME280;62421;51.412;5.432;2022-11-27T03:24:43;102223.84;;;3.71;100.00
74065;BME280;62421;51.412;5.432;2022-11-27T03:27:11;102214.03;;;3.75;100.00
74065;BME280;62421;51.412;5.432;2022-11-27T03:29:48;102210.44;;;3.77;100.00
74065;BME280;62421;51.412;5.432;2022-11-27T03:32:15;102218.31;;;3.82;100.00
74065;BME280;62421;51.412;5.432;2022-11-27T03:34:41;102220.09;;;3.81;100.00
74065;BME280;62421;51.412;5.432;2022-11-27T03:37:07;102216.53;;;3.82;100.00
74065;BME280;62421;51.412;5.432;2022-11-27T03:39:33;102216.50;;;3.84;100.00
74065;BME280;62421;51.412;5.432;2022-11-27T03:49:56;102184.50;;;3.88;100.00
74065;BME280;62421;51.412;5.432;2022-11-27T03:52:35;102182.78;;;3.87;100.00
74065;BME280;62421;51.412;5.432;2022-11-27T03:55:11;102186.28;;;3.89;100.00
74065;BME280;62421;51.412;5.432;2022-11-27T03:57:53;102184.50;;;3.90;100.00
74065;BME280;62421;51.412;5.432;2022-11-27T04:00:22;102179.16;;;3.92;100.00
74065;BME280;62421;51.412;5.432;2022-11-27T04:02:52;102191.50;;;3.93;100.00
74065;BME280;62421;51.412;5.432;2022-11-27T04:05:18;102181.75;;;3.93;100.00
74065;BME280;62421;51.412;5.432;2022-11-27T04:07:44;102186.19;;;3.94;100.00
74065;BME280;62421;51.412;5.432;2022-11-27T04:10:10;102190.56;;;3.95;100.00
74065;BME280;62421;51.412;5.432;2022-11-27T04:12:36;102202.97;;;3.96;100.00
74065;BME280;62421;51.412;5.432;2022-11-27T04:15:01;102187.88;;;3.97;100.00
74065;BME280;62421;51.412;5.432;2022-11-27T04:17:28;102192.34;;;3.96;100.00
74065;BME280;62421;51.412;5.432;2022-11-27T04:19:53;102199.38;;;3.97;100.00
74065;BME280;62421;51.412;5.432;2022-11-27T04:22:18;102203.81;;;3.98;100.00
74065;BME280;62421;51.412;5.432;2022-11-27T04:24:44;102203.75;;;4.00;100.00
74065;BME280;62421;51.412;5.432;2022-11-27T04:27:09;102206.47;;;3.98;100.00
74065;BME280;62421;51.412;5.432;2022-11-27T04:29:35;102201.16;;;3.98;100.00
74065;BME280;62421;51.412;5.432;2022-11-27T04:32:01;102205.56;;;3.98;100.00
74065;BME280;62421;51.412;5.432;2022-11-27T04:34:27;102200.25;;;3.98;100.00
74065;BME280;62421;51.412;5.432;2022-11-27T04:36:52;102194.09;;;3.96;100.00
74065;BME280;62421;51.412;5.432;2022-11-27T04:39:17;102190.56;;;3.95;100.00
74065;BME280;62421;51.412;5.432;2022-11-27T04:41:43;102199.47;;;3.94;100.00
74065;BME280;62421;51.412;5.432;2022-11-27T04:44:10;102190.56;;;3.95;100.00
74065;BME280;62421;51.412;5.432;2022-11-27T04:46:35;102187.88;;;3.97;100.00
74065;BME280;62421;51.412;5.432;2022-11-27T04:49:00;102186.09;;;3.97;100.00
74065;BME280;62421;51.412;5.432;2022-11-27T04:51:26;102187.88;;;3.98;100.00
74065;BME280;62421;51.412;5.432;2022-11-27T04:53:51;102170.13;;;3.99;100.00
74065;BME280;62421;51.412;5.432;2022-11-27T04:56:16;102162.13;;;4.00;100.00
74065;BME280;62421;51.412;5.432;2022-11-27T04:58:42;102157.69;;;4.01;100.00
74065;BME280;62421;51.412;5.432;2022-11-27T05:01:08;102160.31;;;4.02;100.00
74065;BME280;62421;51.412;5.432;2022-11-27T05:03:33;102154.06;;;4.05;100.00
74065;BME280;62421;51.412;5.432;2022-11-27T05:05:59;102164.63;;;4.06;100.00
74065;BME280;62421;51.412;5.432;2022-11-27T05:08:24;102157.56;;;4.07;100.00
74065;BME280;62421;51.412;5.432;2022-11-27T05:11:01;102155.75;;;4.09;100.00
74065;BME280;62421;51.412;5.432;2022-11-27T05:13:27;102153.03;;;4.10;100.00
74065;BME280;62421;51.412;5.432;2022-11-27T05:15:52;102146.81;;;4.12;100.00
74065;BME280;62421;51.412;5.432;2022-11-27T05:18:18;102131.72;;;4.12;100.00
74065;BME280;62421;51.412;5.432;2022-11-27T05:20:43;102134.38;;;4.14;100.00
74065;BME280;62421;51.412;5.432;2022-11-27T05:23:08;102128.19;;;4.13;100.00
74065;BME280;62421;51.412;5.432;2022-11-27T05:25:33;102133.41;;;4.16;100.00
74065;BME280;62421;51.412;5.432;2022-11-27T05:27:59;102132.50;;;4.17;100.00
74065;BME280;62421;51.412;5.432;2022-11-27T05:30:24;102134.25;;;4.18;100.00
74065;BME280;62421;51.412;5.432;2022-11-27T05:32:49;102136.00;;;4.19;100.00
74065;BME280;62421;51.412;5.432;2022-11-27T05:35:15;102123.63;;;4.18;100.00
74065;BME280;62421;51.412;5.432;2022-11-27T05:37:40;102122.69;;;4.19;100.00
74065;BME280;62421;51.412;5.432;2022-11-27T05:40:06;102119.16;;;4.20;100.00
74065;BME280;62421;51.412;5.432;2022-11-27T05:42:31;102121.81;;;4.20;100.00
74065;BME280;62421;51.412;5.432;2022-11-27T05:44:57;102114.69;;;4.21;100.00
74065;BME280;62421;51.412;5.432;2022-11-27T05:47:22;102116.47;;;4.22;100.00
74065;BME280;62421;51.412;5.432;2022-11-27T05:49:47;102119.13;;;4.22;100.00
74065;BME280;62421;51.412;5.432;2022-11-27T05:52:13;102113.75;;;4.23;100.00
74065;BME280;62421;51.412;5.432;2022-11-27T05:54:39;102105.81;;;4.22;100.00
74065;BME280;62421;51.412;5.432;2022-11-27T05:57:04;102101.38;;;4.22;100.00
74065;BME280;62421;51.412;5.432;2022-11-27T05:59:29;102083.63;;;4.23;100.00
74065;BME280;62421;51.412;5.432;2022-11-27T06:01:55;102081.84;;;4.23;100.00
74065;BME280;62421;51.412;5.432;2022-11-27T06:04:20;102084.50;;;4.23;100.00
74065;BME280;62421;51.412;5.432;2022-11-27T06:06:45;102082.72;;;4.24;100.00
74065;BME280;62421;51.412;5.432;2022-11-27T06:09:10;102081.81;;;4.25;100.00
74065;BME280;62421;51.412;5.432;2022-11-27T06:11:36;102086.22;;;4.26;100.00
74065;BME280;62421;51.412;5.432;2022-11-27T06:14:01;102075.53;;;4.27;100.00
74065;BME280;62421;51.412;5.432;2022-11-27T06:16:26;102083.50;;;4.27;100.00
74065;BME280;62421;51.412;5.432;2022-11-27T06:18:53;102079.06;;;4.28;100.00
74065;BME280;62421;51.412;5.432;2022-11-27T06:21:20;102079.03;;;4.29;100.00
74065;BME280;62421;51.412;5.432;2022-11-27T06:23:46;102063.06;;;4.29;100.00
74065;BME280;62421;51.412;5.432;2022-11-27T06:26:15;102071.03;;;4.31;100.00
74065;BME280;62421;51.412;5.432;2022-11-27T06:28:41;102071.03;;;4.31;100.00
74065;BME280;62421;51.412;5.432;2022-11-27T06:31:08;102068.38;;;4.31;100.00
74065;BME280;62421;51.412;5.432;2022-11-27T06:33:34;102062.13;;;4.32;100.00
74065;BME280;62421;51.412;5.432;2022-11-27T06:36:00;102068.38;;;4.31;100.00
74065;BME280;62421;51.412;5.432;2022-11-27T06:38:26;102067.44;;;4.32;100.00
74065;BME280;62421;51.412;5.432;2022-11-27T06:40:51;102062.13;;;4.32;100.00
74065;BME280;62421;51.412;5.432;2022-11-27T06:43:16;102070.94;;;4.34;100.00
74065;BME280;62421;51.412;5.432;2022-11-27T06:45:42;102075.38;;;4.35;100.00
74065;BME280;62421;51.412;5.432;2022-11-27T06:48:07;102065.63;;;4.34;100.00
74065;BME280;62421;51.412;5.432;2022-11-27T06:50:32;102073.59;;;4.34;100.00
74065;BME280;62421;51.412;5.432;2022-11-27T06:52:57;102073.59;;;4.34;100.00
74065;BME280;62421;51.412;5.432;2022-11-27T06:55:23;102070.94;;;4.34;100.00
74065;BME280;62421;51.412;5.432;2022-11-27T06:57:49;102069.19;;;4.33;100.00
74065;BME280;62421;51.412;5.432;2022-11-27T07:00:15;102067.38;;;4.35;100.00
74065;BME280;62421;51.412;5.432;2022-11-27T07:02:40;102061.19;;;4.35;100.00
74065;BME280;62421;51.412;5.432;2022-11-27T07:05:06;102056.75;;;4.35;100.00
74065;BME280;62421;51.412;5.432;2022-11-27T07:07:31;102063.84;;;4.35;100.00
74065;BME280;62421;51.412;5.432;2022-11-27T07:09:56;102048.78;;;4.34;100.00
74065;BME280;62421;51.412;5.432;2022-11-27T07:12:22;102043.44;;;4.35;100.00
74065;BME280;62421;51.412;5.432;2022-11-27T07:14:47;102043.47;;;4.34;100.00
74065;BME280;62421;51.412;5.432;2022-11-27T07:17:12;102027.53;;;4.34;100.00
74065;BME280;62421;51.412;5.432;2022-11-27T07:19:37;102024.00;;;4.33;100.00
74065;BME280;62421;51.412;5.432;2022-11-27T07:22:03;102027.53;;;4.32;100.00
74065;BME280;62421;51.412;5.432;2022-11-27T07:24:28;102010.72;;;4.31;100.00
74065;BME280;62421;51.412;5.432;2022-11-27T07:26:53;102012.56;;;4.29;100.00
74065;BME280;62421;51.412;5.432;2022-11-27T07:29:19;102014.34;;;4.29;100.00
74065;BME280;62421;51.412;5.432;2022-11-27T07:31:44;102008.19;;;4.27;100.00
74065;BME280;62421;51.412;5.432;2022-11-27T07:34:09;102020.63;;;4.26;100.00
74065;BME280;62421;51.412;5.432;2022-11-27T07:36:34;102010.84;;;4.27;100.00
74065;BME280;62421;51.412;5.432;2022-11-27T07:39:00;102014.44;;;4.26;100.00
74065;BME280;62421;51.412;5.432;2022-11-27T07:41:25;102007.25;;;4.28;100.00
74065;BME280;62421;51.412;5.432;2022-11-27T07:43:50;102013.47;;;4.28;100.00
74065;BME280;62421;51.412;5.432;2022-11-27T07:46:19;102007.25;;;4.28;100.00
74065;BME280;62421;51.412;5.432;2022-11-27T07:48:45;102006.41;;;4.27;100.00
74065;BME280;62421;51.412;5.432;2022-11-27T07:51:12;102005.53;;;4.27;100.00
74065;BME280;62421;51.412;5.432;2022-11-27T07:53:39;101996.63;;;4.28;100.00
74065;BME280;62421;51.412;5.432;2022-11-27T07:56:06;101992.22;;;4.28;100.00
74065;BME280;62421;51.412;5.432;2022-11-27T07:58:32;101989.50;;;4.30;100.00
74065;BME280;62421;51.412;5.432;2022-11-27T08:00:59;101978.84;;;4.30;100.00
74065;BME280;62421;51.412;5.432;2022-11-27T08:03:24;101978.81;;;4.31;100.00
74065;BME280;62421;51.412;5.432;2022-11-27T08:05:50;101977.84;;;4.34;100.00
74065;BME280;62421;51.412;5.432;2022-11-27T08:08:15;101968.06;;;4.36;100.00
74065;BME280;62421;51.412;5.432;2022-11-27T08:10:40;101963.63;;;4.37;100.00
74065;BME280;62421;51.412;5.432;2022-11-27T08:13:06;101966.28;;;4.37;100.00
74065;BME280;62421;51.412;5.432;2022-11-27T08:15:32;101965.38;;;4.38;100.00
74065;BME280;62421;51.412;5.432;2022-11-27T08:17:57;101952.03;;;4.39;100.00
74065;BME280;62421;51.412;5.432;2022-11-27T08:20:23;101959.94;;;4.41;100.00
74065;BME280;62421;51.412;5.432;2022-11-27T08:22:49;101964.34;;;4.43;100.00
74065;BME280;62421;51.412;5.432;2022-11-27T08:25:15;101958.97;;;4.45;100.00
74065;BME280;62421;51.412;5.432;2022-11-27T08:27:40;101966.00;;;4.47;100.00
74065;BME280;62421;51.412;5.432;2022-11-27T08:30:06;101957.09;;;4.48;100.00
74065;BME280;62421;51.412;5.432;2022-11-27T08:32:31;101958.81;;;4.51;100.00
74065;BME280;62421;51.412;5.432;2022-11-27T08:34:57;101954.31;;;4.53;100.00
74065;BME280;62421;51.412;5.432;2022-11-27T08:37:22;101956.00;;;4.56;100.00
74065;BME280;62421;51.412;5.432;2022-11-27T08:39:47;101947.97;;;4.59;100.00
74065;BME280;62421;51.412;5.432;2022-11-27T08:42:13;101954.06;;;4.62;100.00
74065;BME280;62421;51.412;5.432;2022-11-27T08:44:38;101954.84;;;4.66;100.00
74065;BME280;62421;51.412;5.432;2022-11-27T08:47:03;101945.91;;;4.68;100.00
74065;BME280;62421;51.412;5.432;2022-11-27T08:49:29;101944.91;;;4.72;100.00
74065;BME280;62421;51.412;5.432;2022-11-27T08:51:54;101949.25;;;4.75;100.00
74065;BME280;62421;51.412;5.432;2022-11-27T08:54:19;101943.00;;;4.78;100.00
74065;BME280;62421;51.412;5.432;2022-11-27T08:56:45;101951.75;;;4.81;100.00
74065;BME280;62421;51.412;5.432;2022-11-27T08:59:10;101955.25;;;4.83;100.00
74065;BME280;62421;51.412;5.432;2022-11-27T09:01:35;101960.50;;;4.86;100.00
74065;BME280;62421;51.412;5.432;2022-11-27T09:04:01;101956.88;;;4.89;100.00
74065;BME280;62421;51.412;5.432;2022-11-27T09:06:31;101964.72;;;4.93;100.00
74065;BME280;62421;51.412;5.432;2022-11-27T09:09:00;101954.88;;;4.97;100.00
74065;BME280;62421;51.412;5.432;2022-11-27T09:11:27;101961.88;;;5.00;100.00
74065;BME280;62421;51.412;5.432;2022-11-27T09:13:52;101951.13;;;5.03;100.00
74065;BME280;62421;51.412;5.432;2022-11-27T09:16:19;101947.56;;;5.04;100.00
74065;BME280;62421;51.412;5.432;2022-11-27T09:18:47;101948.34;;;5.07;100.00
74065;BME280;62421;51.412;5.432;2022-11-27T09:21:14;101946.47;;;5.11;100.00
74065;BME280;62421;51.412;5.432;2022-11-27T09:23:40;101949.91;;;5.15;100.00
74065;BME280;62421;51.412;5.432;2022-11-27T09:26:09;101949.81;;;5.18;100.00
74065;BME280;62421;51.412;5.432;2022-11-27T09:28:35;101947.06;;;5.21;100.00
74065;BME280;62421;51.412;5.432;2022-11-27T09:31:02;101953.22;;;5.23;100.00
74065;BME280;62421;51.412;5.432;2022-11-27T09:33:29;101946.97;;;5.24;100.00
74065;BME280;62421;51.412;5.432;2022-11-27T09:35:55;101954.91;;;5.25;100.00
74065;BME280;62421;51.412;5.432;2022-11-27T09:38:21;101947.78;;;5.26;100.00
74065;BME280;62421;51.412;5.432;2022-11-27T09:40:49;101945.91;;;5.29;100.00
74065;BME280;62421;51.412;5.432;2022-11-27T09:43:16;101937.81;;;5.32;100.00
74065;BME280;62421;51.412;5.432;2022-11-27T09:45:49;101939.47;;;5.37;100.00
74065;BME280;62421;51.412;5.432;2022-11-27T09:48:21;101942.94;;;5.40;100.00
74065;BME280;62421;51.412;5.432;2022-11-27T09:50:50;101941.97;;;5.43;100.00
74065;BME280;62421;51.412;5.432;2022-11-27T09:53:31;101935.69;;;5.44;100.00
74065;BME280;62421;51.412;5.432;2022-11-27T09:55:58;101927.66;;;5.45;100.00
74065;BME280;62421;51.412;5.432;2022-11-27T09:58:37;101934.69;;;5.48;100.00
74065;BME280;62421;51.412;5.432;2022-11-27T10:01:15;101916.00;;;5.49;100.00
74065;BME280;62421;51.412;5.432;2022-11-27T10:03:42;101928.38;;;5.50;100.00
74065;BME280;62421;51.412;5.432;2022-11-27T10:06:18;101911.53;;;5.50;100.00
74065;BME280;62421;51.412;5.432;2022-11-27T10:16:50;101908.66;;;5.56;100.00
74065;BME280;62421;51.412;5.432;2022-11-27T10:22:09;101899.63;;;5.62;100.00
74065;BME280;62421;51.412;5.432;2022-11-27T10:27:16;101884.28;;;5.68;100.00
74065;BME280;62421;51.412;5.432;2022-11-27T10:29:49;101881.53;;;5.71;100.00
74065;BME280;62421;51.412;5.432;2022-11-27T10:32:20;101870.78;;;5.74;100.00
74065;BME280;62421;51.412;5.432;2022-11-27T10:34:48;101881.28;;;5.79;100.00
74065;BME280;62421;51.412;5.432;2022-11-27T10:37:22;101873.16;;;5.82;100.00
74065;BME280;62421;51.412;5.432;2022-11-27T10:39:55;101865.13;;;5.84;100.00
74065;BME280;62421;51.412;5.432;2022-11-27T10:43:06;101873.91;;;5.87;100.00
74065;BME280;62421;51.412;5.432;2022-11-27T10:48:05;101868.31;;;5.95;100.00
74065;BME280;62421;51.412;5.432;2022-11-27T10:50:30;101861.06;;;6.00;100.00
74065;BME280;62421;51.412;5.432;2022-11-27T10:53:02;101863.56;;;6.05;100.00
74065;BME280;62421;51.412;5.432;2022-11-27T10:58:12;101854.44;;;6.10;100.00
74065;BME280;62421;51.412;5.432;2022-11-27T11:00:40;101850.78;;;6.13;100.00
74065;BME280;62421;51.412;5.432;2022-11-27T11:03:05;101854.19;;;6.18;100.00
74065;BME280;62421;51.412;5.432;2022-11-27T11:05:33;101832.81;;;6.20;100.00
74065;BME280;62421;51.412;5.432;2022-11-27T11:08:15;101839.81;;;6.22;100.00
74065;BME280;62421;51.412;5.432;2022-11-27T11:15:50;101819.13;;;6.29;100.00
74065;BME280;62421;51.412;5.432;2022-11-27T11:18:22;101814.59;;;6.31;100.00
74065;BME280;62421;51.412;5.432;2022-11-27T11:20:50;101803.81;;;6.34;100.00
74065;BME280;62421;51.412;5.432;2022-11-27T11:23:26;101794.81;;;6.36;100.00
74065;BME280;62421;51.412;5.432;2022-11-27T11:25:55;101792.16;;;6.36;100.00
74065;BME280;62421;51.412;5.432;2022-11-27T11:28:23;101793.22;;;6.32;100.00
74065;BME280;62421;51.412;5.432;2022-11-27T11:31:04;101785.22;;;6.32;100.00
74065;BME280;62421;51.412;5.432;2022-11-27T11:33:38;101787.88;;;6.32;100.00
74065;BME280;62421;51.412;5.432;2022-11-27T11:36:11;101780.75;;;6.33;100.00
74065;BME280;62421;51.412;5.432;2022-11-27T11:38:36;101783.28;;;6.36;100.00
74065;BME280;62421;51.412;5.432;2022-11-27T11:41:05;101776.91;;;6.40;100.00
74065;BME280;62421;51.412;5.432;2022-11-27T11:43:36;101770.47;;;6.46;100.00
74065;BME280;62421;51.412;5.432;2022-11-27T11:46:19;101768.41;;;6.54;100.00
74065;BME280;62421;51.412;5.432;2022-11-27T11:49:04;101761.97;;;6.58;100.00
74065;BME280;62421;51.412;5.432;2022-11-27T11:56:58;101740.88;;;6.75;100.00
74065;BME280;62421;51.412;5.432;2022-11-27T11:59:49;101743.41;;;6.79;100.00
74065;BME280;62421;51.412;5.432;2022-11-27T12:05:35;101724.66;;;6.80;100.00
74065;BME280;62421;51.412;5.432;2022-11-27T12:08:27;101718.13;;;6.87;100.00
74065;BME280;62421;51.412;5.432;2022-11-27T12:11:09;101708.06;;;6.94;100.00
74065;BME280;62421;51.412;5.432;2022-11-27T12:14:04;101701.53;;;7.01;100.00
74065;BME280;62421;51.412;5.432;2022-11-27T12:22:18;101681.59;;;7.30;100.00
74065;BME280;62421;51.412;5.432;2022-11-27T12:25:00;101685.09;;;7.32;100.00
74065;BME280;62421;51.412;5.432;2022-11-27T12:30:29;101667.03;;;7.17;100.00
74065;BME280;62421;51.412;5.432;2022-11-27T12:35:51;101655.88;;;7.07;100.00
74065;BME280;62421;51.412;5.432;2022-11-27T12:38:43;101656.13;;;7.01;100.00
74065;BME280;62421;51.412;5.432;2022-11-27T12:43:49;101669.81;;;6.93;100.00
74065;BME280;62421;51.412;5.432;2022-11-27T12:46:36;101660.94;;;6.93;100.00
74065;BME280;62421;51.412;5.432;2022-11-27T12:49:11;101654.81;;;6.91;100.00
74065;BME280;62421;51.412;5.432;2022-11-27T12:51:46;101639.84;;;6.87;100.00
74065;BME280;62421;51.412;5.432;2022-11-27T12:54:19;101638.19;;;6.84;100.00
74065;BME280;62421;51.412;5.432;2022-11-27T12:56:56;101626.59;;;6.84;100.00
74065;BME280;62421;51.412;5.432;2022-11-27T13:02:30;101608.31;;;6.74;100.00
74065;BME280;62421;51.412;5.432;2022-11-27T13:07:42;101610.22;;;6.71;100.00
74065;BME280;62421;51.412;5.432;2022-11-27T13:10:25;101620.91;;;6.71;100.00
74065;BME280;62421;51.412;5.432;2022-11-27T13:13:22;101621.81;;;6.71;100.00
74065;BME280;62421;51.412;5.432;2022-11-27T13:16:03;101638.72;;;6.70;100.00
74065;BME280;62421;51.412;5.432;2022-11-27T13:18:38;101629.00;;;6.69;100.00
74065;BME280;62421;51.412;5.432;2022-11-27T13:21:09;101620.09;;;6.69;100.00
74065;BME280;62421;51.412;5.432;2022-11-27T13:23:36;101629.91;;;6.68;100.00
74065;BME280;62421;51.412;5.432;2022-11-27T13:26:10;101625.53;;;6.67;100.00
74065;BME280;62421;51.412;5.432;2022-11-27T13:28:43;101620.19;;;6.67;100.00
74065;BME280;62421;51.412;5.432;2022-11-27T13:31:20;101627.25;;;6.68;100.00
74065;BME280;62421;51.412;5.432;2022-11-27T13:33:48;101611.19;;;6.70;100.00
74065;BME280;62421;51.412;5.432;2022-11-27T13:36:23;101613.84;;;6.70;100.00
74065;BME280;62421;51.412;5.432;2022-11-27T13:42:04;101616.47;;;6.71;100.00
74065;BME280;62421;51.412;5.432;2022-11-27T13:44:34;101613.84;;;6.70;100.00
74065;BME280;62421;51.412;5.432;2022-11-27T13:47:10;101588.97;;;6.69;100.00
74065;BME280;62421;51.412;5.432;2022-11-27T13:49:36;101598.88;;;6.66;100.00
74065;BME280;62421;51.412;5.432;2022-11-27T13:52:20;101593.56;;;6.66;100.00
74065;BME280;62421;51.412;5.432;2022-11-27T13:55:06;101588.28;;;6.64;100.00
74065;BME280;62421;51.412;5.432;2022-11-27T13:57:34;101591.88;;;6.63;100.00
74065;BME280;62421;51.412;5.432;2022-11-27T14:00:09;101577.59;;;6.64;100.00
74065;BME280;62421;51.412;5.432;2022-11-27T14:02:53;101575.88;;;6.63;100.00
74065;BME280;62421;51.412;5.432;2022-11-27T14:05:20;101572.34;;;6.63;100.00
74065;BME280;62421;51.412;5.432;2022-11-27T14:07:58;101579.41;;;6.64;100.00
74065;BME280;62421;51.412;5.432;2022-11-27T14:10:26;101562.47;;;6.65;100.00
74065;BME280;62421;51.412;5.432;2022-11-27T14:12:58;101564.19;;;6.66;100.00
74065;BME280;62421;51.412;5.432;2022-11-27T14:15:26;101568.72;;;6.64;100.00
74065;BME280;62421;51.412;5.432;2022-11-27T14:18:17;101561.66;;;6.63;100.00
74065;BME280;62421;51.412;5.432;2022-11-27T14:20:47;101554.63;;;6.60;100.00